Time;durP1;ratioP1;P1;durP2;ratioP2;P2;SDS_P1;SDS_P2;PMS_P1;PMS_P2;Temp;Humidity;BMP_temperature;BMP_pressure;BME280_temperature;BME280_humidity;BME280_pressure;Samples;Min_cycle;Max_cycle;Signal;HPM_P1;HPM_P2
2022/03/24 00:00:09;;;;;;;14.00;10.45;;;;;;;20.81;30.24;102272.69;5020975;28;20084;-80
2022/03/24 00:02:39;;;;;;;12.18;9.95;;;;;;;20.79;30.03;102266.56;5034004;28;20052;-81
2022/03/24 00:05:08;;;;;;;10.65;9.40;;;;;;;20.79;30.10;102266.56;5035319;28;20056;-81
2022/03/24 00:07:36;;;;;;;10.65;9.55;;;;;;;20.79;29.96;102265.72;5052950;28;20041;-80
2022/03/24 00:10:04;;;;;;;10.90;9.80;;;;;;;20.79;30.15;102268.41;5052513;28;20049;-81
2022/03/24 00:12:32;;;;;;;13.55;9.93;;;;;;;20.79;30.03;102274.66;5052087;28;20037;-81
2022/03/24 00:14:59;;;;;;;12.13;9.50;;;;;;;20.79;29.88;102268.41;5034418;28;20045;-81
2022/03/24 00:17:27;;;;;;;11.93;10.07;;;;;;;20.78;29.87;102266.66;5052289;28;20503;-81
2022/03/24 00:19:54;;;;;;;10.52;9.48;;;;;;;20.79;29.85;102268.41;5052733;28;20056;-81
2022/03/24 00:22:21;;;;;;;12.13;9.57;;;;;;;20.78;29.85;102261.28;5037556;28;20048;-81
2022/03/24 00:24:49;;;;;;;10.52;9.43;;;;;;;20.78;29.86;102261.28;5055512;28;20048;-81
2022/03/24 00:27:16;;;;;;;10.73;9.63;;;;;;;20.78;29.81;102267.53;5055564;28;20075;-81
2022/03/24 00:29:45;;;;;;;10.13;9.02;;;;;;;20.77;29.77;102254.19;5055904;28;20346;-81
2022/03/24 00:32:13;;;;;;;10.30;9.30;;;;;;;20.77;29.69;102260.41;5054624;28;20056;-81
2022/03/24 00:34:40;;;;;;;9.60;8.70;;;;;;;20.77;29.68;102252.34;5037145;28;20415;-81
2022/03/24 00:37:09;;;;;;;11.20;10.00;;;;;;;20.76;29.86;102245.25;5055016;28;20041;-81
2022/03/24 00:39:40;;;;;;;9.80;8.80;;;;;;;20.77;29.87;102244.28;5036727;28;20069;-81
2022/03/24 00:42:11;;;;;;;10.10;8.65;;;;;;;20.76;29.85;102241.69;5036742;28;20056;-81
2022/03/24 00:44:44;;;;;;;9.00;7.90;;;;;;;20.76;29.84;102241.69;5022091;28;20053;-82
2022/03/24 00:47:16;;;;;;;10.90;9.80;;;;;;;20.76;29.84;102241.69;5055066;28;20060;-81
2022/03/24 00:49:47;;;;;;;;;;;;;;;20.76;29.67;102241.69;5055854;28;20041;-81
2022/03/24 00:52:14;;;;;;;9.85;8.88;;;;;;;20.75;29.77;102246.22;5036839;28;19920;-81
2022/03/24 00:54:42;;;;;;;9.80;8.55;;;;;;;20.75;29.72;102240.84;5054514;28;20041;-81
2022/03/24 00:57:09;;;;;;;10.93;8.48;;;;;;;20.74;29.64;102239.09;5054599;28;20488;-81
2022/03/24 00:59:37;;;;;;;10.85;9.40;;;;;;;20.74;29.60;102237.28;5037372;28;20392;-81
2022/03/24 01:02:09;;;;;;;11.63;9.07;;;;;;;20.73;29.71;102230.16;5036659;28;20045;-81
2022/03/24 01:04:38;;;;;;;9.77;8.80;;;;;;;20.74;29.90;102234.59;5037494;28;20091;-82
2022/03/24 01:07:05;;;;;;;9.90;8.90;;;;;;;20.73;29.65;102232.84;5055404;28;20056;-82
2022/03/24 01:09:33;;;;;;;9.38;8.48;;;;;;;20.72;29.54;102231.13;5039137;28;20056;-81
2022/03/24 01:12:02;;;;;;;9.05;8.13;;;;;;;20.74;29.73;102225.63;5054462;28;20045;-81
2022/03/24 01:14:32;;;;;;;11.13;8.77;;;;;;;20.73;29.73;102226.63;5037336;28;20045;-82
2022/03/24 01:17:01;;;;;;;9.02;8.13;;;;;;;20.72;29.55;102225.75;5034331;28;20049;-83
2022/03/24 01:19:28;;;;;;;9.90;8.30;;;;;;;20.71;29.60;102225.88;5054612;28;20045;-82
2022/03/24 01:21:55;;;;;;;11.15;9.95;;;;;;;20.71;29.52;102218.66;5036164;28;20055;-82
2022/03/24 01:24:23;;;;;;;9.88;8.32;;;;;;;20.72;29.54;102222.22;5036521;28;20049;-82
2022/03/24 01:26:50;;;;;;;10.43;8.88;;;;;;;20.71;29.57;102224.03;5037800;28;20076;-82
2022/03/24 01:29:21;;;;;;;9.52;8.30;;;;;;;20.71;29.56;102224.03;5036991;28;20056;-83
2022/03/24 01:31:50;;;;;;;11.70;9.05;;;;;;;20.71;29.62;102217.81;5037903;28;20045;-84
2022/03/24 01:34:18;;;;;;;8.90;8.00;;;;;;;20.71;29.77;102225.88;5055987;28;20377;-83
2022/03/24 01:36:45;;;;;;;8.90;8.10;;;;;;;20.71;29.54;102223.19;5055888;28;20056;-83
2022/03/24 01:39:12;;;;;;;9.73;8.80;;;;;;;20.71;29.50;102220.50;5052023;28;20056;-83
2022/03/24 01:41:40;;;;;;;9.98;8.95;;;;;;;20.71;29.71;102223.19;5034158;28;20504;-82
2022/03/24 01:44:14;;;;;;;9.50;8.50;;;;;;;20.71;29.68;102223.19;5036322;28;20041;-81
2022/03/24 01:47:07;;;;;;;9.13;8.20;;;;;;;20.70;29.52;102218.75;5036050;28;20053;-81
2022/03/24 01:49:37;;;;;;;9.02;8.13;;;;;;;20.70;29.72;102216.94;5054386;28;20059;-81
2022/03/24 01:52:07;;;;;;;9.43;8.43;;;;;;;20.70;29.58;102208.88;5035762;28;20060;-81
2022/03/24 01:54:40;;;;;;;8.57;7.68;;;;;;;20.70;29.67;102214.25;5036066;28;20525;-81
2022/03/24 01:57:15;;;;;;;9.02;8.20;;;;;;;20.71;29.79;102215.13;5036694;28;20060;-81
2022/03/24 01:59:42;;;;;;;9.13;8.23;;;;;;;20.70;29.62;102221.44;5035952;28;20052;-80
2022/03/24 02:02:11;;;;;;;12.00;8.55;;;;;;;20.70;29.56;102218.75;5054244;28;20049;-81
2022/03/24 02:04:39;;;;;;;10.52;8.90;;;;;;;20.70;29.66;102216.06;5054762;28;20499;-81
2022/03/24 02:07:08;;;;;;;9.73;8.10;;;;;;;20.69;29.68;102215.19;5036367;28;20403;-81
2022/03/24 02:09:37;;;;;;;9.45;8.10;;;;;;;20.68;29.73;102210.78;5035598;28;20062;-81
2022/03/24 02:12:06;;;;;;;8.57;7.63;;;;;;;20.69;29.78;102212.50;5052722;28;20381;-81
2022/03/24 02:14:34;;;;;;;8.75;7.07;;;;;;;20.68;29.69;102210.78;5033565;28;20392;-81
2022/03/24 02:17:03;;;;;;;8.82;7.97;;;;;;;20.69;29.70;102206.28;5035315;28;20057;-81
2022/03/24 02:19:33;;;;;;;10.75;8.35;;;;;;;20.68;29.64;102205.41;5035639;28;20412;-81
2022/03/24 02:22:14;;;;;;;8.77;7.93;;;;;;;20.68;29.83;102207.25;5035236;28;20049;-80
2022/03/24 02:24:42;;;;;;;9.32;8.07;;;;;;;20.68;29.68;102199.16;5051502;28;20468;-81
2022/03/24 02:27:11;;;;;;;9.60;8.50;;;;;;;20.67;29.64;102197.47;5035244;28;20373;-81
2022/03/24 02:29:40;;;;;;;8.90;7.75;;;;;;;20.67;29.67;102203.69;5053782;28;20056;-81
2022/03/24 02:32:08;;;;;;;8.90;7.75;;;;;;;20.68;29.73;102209.94;5053036;28;20053;-80
2022/03/24 02:34:47;;;;;;;10.07;8.32;;;;;;;20.66;29.64;102201.97;5035370;28;20041;-80
2022/03/24 02:37:18;;;;;;;9.15;8.20;;;;;;;20.66;29.53;102199.28;5053562;28;20045;-80
2022/03/24 02:39:49;;;;;;;8.68;7.78;;;;;;;20.66;29.72;102204.69;5035649;28;20420;-80
2022/03/24 02:42:19;;;;;;;8.90;8.00;;;;;;;20.66;29.89;102203.78;5034997;28;20056;-81
2022/03/24 02:44:55;;;;;;;8.93;8.02;;;;;;;20.65;29.79;102207.44;5053831;28;20049;-81
2022/03/24 02:47:23;;;;;;;8.75;7.82;;;;;;;20.65;29.55;102208.31;5053778;28;20383;-83
2022/03/24 02:49:55;;;;;;;9.73;8.40;;;;;;;20.65;29.62;102204.75;5053408;28;20056;-81
2022/03/24 02:52:23;;;;;;;8.63;7.72;;;;;;;20.65;29.56;102207.44;5053517;28;20052;-82
2022/03/24 02:54:51;;;;;;;8.98;7.85;;;;;;;20.65;29.52;102202.06;5053599;28;20090;-82
2022/03/24 02:57:19;;;;;;;12.02;8.38;;;;;;;20.64;29.72;102205.75;5053311;28;20053;-81
2022/03/24 02:59:46;;;;;;;8.82;7.93;;;;;;;20.63;29.42;102204.88;5053185;28;20048;-81
2022/03/24 03:02:16;;;;;;;10.07;8.60;;;;;;;20.63;29.61;102210.25;5035390;28;20048;-81
2022/03/24 03:04:51;;;;;;;9.77;8.88;;;;;;;20.62;29.42;102208.56;5053287;28;20033;-82
2022/03/24 03:07:20;;;;;;;9.38;8.38;;;;;;;20.63;29.65;102204.03;5052937;28;20076;-81
2022/03/24 03:09:48;;;;;;;9.73;8.40;;;;;;;20.63;29.52;102209.41;5053392;28;20052;-81
2022/03/24 03:12:19;;;;;;;10.18;7.80;;;;;;;20.62;29.62;102205.84;5053119;28;20408;-81
2022/03/24 03:14:46;;;;;;;9.63;7.72;;;;;;;20.62;29.87;102213.03;5054127;28;20045;-82
2022/03/24 03:17:15;;;;;;;10.48;8.15;;;;;;;20.61;29.55;102211.31;5052388;28;20052;-82
2022/03/24 03:19:45;;;;;;;9.07;8.13;;;;;;;20.61;29.70;102209.50;5033531;28;20053;-82
2022/03/24 03:22:14;;;;;;;9.98;8.65;;;;;;;20.61;29.79;102211.31;5052515;28;20051;-80
2022/03/24 03:24:42;;;;;;;9.30;8.18;;;;;;;20.60;29.82;102207.78;5035162;28;20052;-81
2022/03/24 03:27:10;;;;;;;9.75;8.38;;;;;;;20.60;29.74;102215.84;5053244;28;20056;-81
2022/03/24 03:29:37;;;;;;;8.60;7.72;;;;;;;20.61;29.73;102222.09;5052837;28;20049;-80
2022/03/24 03:32:05;;;;;;;9.30;7.95;;;;;;;20.59;29.65;102208.75;5053129;28;20056;-82
2022/03/24 03:34:32;;;;;;;9.90;8.10;;;;;;;20.59;29.69;102211.44;5052684;28;20041;-81
2022/03/24 03:37:00;;;;;;;10.32;9.27;;;;;;;20.59;29.77;102203.38;5052230;28;20049;-81
2022/03/24 03:39:27;;;;;;;9.60;8.55;;;;;;;20.59;29.68;102218.66;5052242;28;20049;-81
2022/03/24 03:41:55;;;;;;;8.77;7.82;;;;;;;20.58;29.82;102207.03;5052073;28;20045;-81
2022/03/24 03:44:23;;;;;;;8.73;7.72;;;;;;;20.58;29.85;102212.41;5051594;28;20048;-81
2022/03/24 03:46:51;;;;;;;9.07;7.80;;;;;;;20.57;29.56;102213.38;5050125;28;20041;-81
2022/03/24 03:49:21;;;;;;;9.35;8.35;;;;;;;20.57;29.68;102207.13;5050726;28;20034;-81
2022/03/24 03:51:54;;;;;;;8.95;8.05;;;;;;;20.57;29.53;102210.69;5034583;28;20064;-82
2022/03/24 03:54:21;;;;;;;8.63;7.78;;;;;;;20.57;29.76;102204.44;5052974;28;20401;-81
2022/03/24 03:56:49;;;;;;;10.13;8.15;;;;;;;20.57;29.45;102207.13;5055867;28;20041;-81
2022/03/24 03:59:16;;;;;;;9.18;8.18;;;;;;;20.56;29.65;102198.19;5055859;28;20048;-81
2022/03/24 04:01:43;;;;;;;10.32;7.80;;;;;;;20.56;29.90;102200.88;5055694;28;20409;-81
2022/03/24 04:04:12;;;;;;;10.00;8.43;;;;;;;20.56;29.59;102200.03;5055949;28;20044;-81
2022/03/24 04:06:40;;;;;;;9.23;7.72;;;;;;;20.57;29.71;102209.81;5037588;28;20060;-81
2022/03/24 04:09:08;;;;;;;10.07;7.97;;;;;;;20.56;29.78;102203.56;5037828;28;20045;-82
2022/03/24 04:11:36;;;;;;;8.65;7.53;;;;;;;20.56;29.69;102206.28;5055202;28;20045;-81
2022/03/24 04:14:04;;;;;;;9.00;8.10;;;;;;;20.55;29.70;102201.88;5054734;28;20056;-81
2022/03/24 04:16:32;;;;;;;9.30;7.53;;;;;;;20.55;29.66;102199.16;5055542;28;20411;-81
2022/03/24 04:18:59;;;;;;;8.70;7.72;;;;;;;20.55;29.86;102196.47;5055993;28;20049;-82
2022/03/24 04:21:27;;;;;;;9.13;8.23;;;;;;;20.55;29.76;102203.69;5055305;28;20071;-81
2022/03/24 04:23:55;;;;;;;10.60;8.15;;;;;;;20.55;29.62;102201.00;5055053;28;20049;-81
2022/03/24 04:26:22;;;;;;;9.60;8.05;;;;;;;20.55;29.61;102201.88;5055554;28;20060;-81
2022/03/24 04:28:50;;;;;;;8.63;7.28;;;;;;;20.53;29.79;102201.09;5055529;28;20376;-82
2022/03/24 04:31:17;;;;;;;8.18;7.38;;;;;;;20.53;29.68;102203.78;5053204;28;20041;-82
2022/03/24 04:33:45;;;;;;;8.85;8.05;;;;;;;20.53;29.68;102203.78;5054491;28;20048;-82
2022/03/24 04:36:12;;;;;;;8.80;7.88;;;;;;;20.53;29.68;102206.47;5055879;28;20071;-82
2022/03/24 04:38:39;;;;;;;8.75;7.85;;;;;;;20.53;29.66;102201.09;5055222;28;20048;-82
2022/03/24 04:41:07;;;;;;;9.40;7.68;;;;;;;20.53;29.69;102202.94;5037904;28;20072;-81
2022/03/24 04:43:35;;;;;;;8.88;7.97;;;;;;;20.52;29.67;102203.91;5055209;28;20364;-82
2022/03/24 04:46:03;;;;;;;8.48;7.60;;;;;;;20.52;29.89;102206.59;5055519;28;20048;-81
2022/03/24 04:48:35;;;;;;;7.85;7.05;;;;;;;20.52;29.84;102209.28;5036961;28;20534;-82
2022/03/24 04:51:05;;;;;;;8.50;7.65;;;;;;;20.51;29.57;102205.72;5055170;28;20472;-82
2022/03/24 04:53:33;;;;;;;9.23;7.93;;;;;;;20.51;29.46;102205.72;5054823;28;20056;-80
2022/03/24 04:56:01;;;;;;;7.80;7.00;;;;;;;20.50;29.82;102204.03;5054727;28;20040;-81
2022/03/24 04:58:28;;;;;;;8.57;7.68;;;;;;;20.51;29.57;102210.25;5055030;28;20052;-82
2022/03/24 05:00:57;;;;;;;9.00;7.25;;;;;;;20.49;29.54;102211.19;5055315;28;20409;-81
2022/03/24 05:03:25;;;;;;;9.18;8.18;;;;;;;20.50;29.53;102212.09;5055321;28;20492;-81
2022/03/24 05:05:54;;;;;;;8.13;7.32;;;;;;;20.49;29.76;102207.66;5054526;28;20056;-82
2022/03/24 05:08:21;;;;;;;8.35;7.55;;;;;;;20.48;29.39;102209.50;5052929;28;20056;-82
2022/03/24 05:10:48;;;;;;;9.57;8.00;;;;;;;20.49;29.51;102204.97;5055290;28;20399;-82
2022/03/24 05:13:16;;;;;;;8.48;7.68;;;;;;;20.48;29.67;102205.91;5055003;28;20150;-82
2022/03/24 05:15:43;;;;;;;8.27;7.40;;;;;;;20.47;29.55;102209.56;5054020;28;20399;-81
2022/03/24 05:18:11;;;;;;;9.20;8.02;;;;;;;20.48;29.56;102216.66;5053003;28;20041;-81
2022/03/24 05:20:38;;;;;;;9.15;8.25;;;;;;;20.47;29.63;102214.94;5056581;28;20056;-81
2022/03/24 05:23:05;;;;;;;8.45;7.25;;;;;;;20.48;29.63;102213.97;5057217;28;20384;-82
2022/03/24 05:25:34;;;;;;;8.65;7.53;;;;;;;20.46;29.65;102213.25;5036973;28;20053;-82
2022/03/24 05:28:04;;;;;;;9.43;7.38;;;;;;;20.47;29.83;102220.34;5055395;28;20048;-81
2022/03/24 05:30:31;;;;;;;7.93;7.13;;;;;;;20.47;29.84;102220.34;5020015;28;20071;-81
2022/03/24 05:32:58;;;;;;;10.02;7.40;;;;;;;20.46;29.63;102224.00;5054815;28;20072;-81
2022/03/24 05:35:26;;;;;;;8.70;7.43;;;;;;;20.46;29.55;102224.00;5054587;28;20052;-81
2022/03/24 05:37:53;;;;;;;8.75;7.85;;;;;;;20.46;29.52;102226.69;5054944;28;20471;-80
2022/03/24 05:40:21;;;;;;;8.88;7.43;;;;;;;20.45;29.51;102224.94;5055004;28;20098;-80
2022/03/24 05:42:49;;;;;;;9.65;8.07;;;;;;;20.46;29.65;102226.69;5054353;28;20485;-79
2022/03/24 05:45:16;;;;;;;8.35;7.43;;;;;;;20.46;29.56;102224.00;5054108;28;20041;-81
2022/03/24 05:47:43;;;;;;;8.43;7.38;;;;;;;20.44;29.50;102221.41;5054283;28;20056;-81
2022/03/24 05:50:15;;;;;;;8.35;7.45;;;;;;;20.44;29.67;102229.47;5019556;28;20519;-81
2022/03/24 05:53:09;;;;;;;;;;;;;;;20.44;29.67;102232.16;5050476;28;20057;-81
2022/03/24 05:55:38;;;;;;;7.93;7.13;;;;;;;20.44;29.53;102234.84;5035605;28;20298;-81
2022/03/24 05:58:06;;;;;;;8.70;7.80;;;;;;;20.44;29.69;102236.69;5053889;28;20056;-81
2022/03/24 06:00:38;;;;;;;7.63;6.82;;;;;;;20.44;29.82;102237.53;5053143;28;20061;-83
2022/03/24 06:03:06;;;;;;;8.37;7.03;;;;;;;20.43;29.72;102241.19;5054472;28;20384;-81
2022/03/24 06:05:34;;;;;;;9.55;7.38;;;;;;;20.44;29.56;102239.38;5053482;28;20048;-81
2022/03/24 06:08:02;;;;;;;8.85;7.57;;;;;;;20.43;29.66;102241.19;5036636;28;20049;-81
2022/03/24 06:10:33;;;;;;;10.10;8.18;;;;;;;20.43;29.75;102238.50;5054699;28;20498;-81
2022/03/24 06:13:00;;;;;;;9.10;7.47;;;;;;;20.43;29.65;102233.13;5053305;28;20411;-81
2022/03/24 06:15:29;;;;;;;7.97;7.18;;;;;;;20.43;29.71;102234.97;5052605;28;20044;-80
2022/03/24 06:17:56;;;;;;;8.38;7.50;;;;;;;20.42;29.58;102235.94;5054761;28;20078;-81
2022/03/24 06:20:23;;;;;;;9.25;7.00;;;;;;;20.42;29.66;102241.31;5055625;28;20384;-81
2022/03/24 06:22:53;;;;;;;7.63;6.82;;;;;;;20.42;29.62;102235.94;5054254;28;20045;-80
2022/03/24 06:25:22;;;;;;;10.75;7.45;;;;;;;20.43;30.03;102234.97;5054776;28;20049;-81
2022/03/24 06:27:50;;;;;;;9.77;8.45;;;;;;;20.43;29.69;102246.56;5053720;28;20492;-80
2022/03/24 06:30:18;;;;;;;7.90;7.05;;;;;;;20.43;29.78;102246.56;5052439;28;20049;-79
2022/03/24 06:32:46;;;;;;;9.00;7.40;;;;;;;20.43;29.68;102237.66;5053491;28;20041;-80
2022/03/24 06:35:14;;;;;;;8.98;8.02;;;;;;;20.44;29.65;102250.13;5052165;28;20049;-81
2022/03/24 06:37:41;;;;;;;9.05;7.28;;;;;;;20.44;29.63;102240.22;5052179;28;20041;-81
2022/03/24 06:40:11;;;;;;;8.32;7.53;;;;;;;20.44;29.74;102239.38;5052405;28;20052;-81
2022/03/24 06:42:38;;;;;;;7.72;6.93;;;;;;;20.45;29.75;102241.06;5051603;28;20049;-82
2022/03/24 06:45:07;;;;;;;9.45;6.95;;;;;;;20.44;29.68;102242.91;5033000;28;20045;-82
2022/03/24 06:47:34;;;;;;;8.00;6.85;;;;;;;20.46;29.76;102245.53;5051357;28;20049;-82
2022/03/24 06:50:03;;;;;;;7.22;6.53;;;;;;;20.44;29.84;102250.97;5052957;28;20052;-80
2022/03/24 06:52:31;;;;;;;8.07;7.28;;;;;;;20.45;29.65;102239.25;5033720;28;20049;-81
2022/03/24 06:54:58;;;;;;;7.57;6.35;;;;;;;20.45;29.61;102241.06;5051032;28;20041;-82
2022/03/24 06:57:26;;;;;;;9.73;7.18;;;;;;;20.45;29.48;102254.53;5052853;28;20060;-82
2022/03/24 06:59:53;;;;;;;7.82;6.85;;;;;;;20.45;29.60;102243.78;5034897;28;20412;-81
2022/03/24 07:02:21;;;;;;;9.77;7.18;;;;;;;20.46;29.44;102249.06;5035215;28;20049;-81
2022/03/24 07:04:52;;;;;;;8.85;6.95;;;;;;;20.46;29.45;102240.13;5053552;28;20049;-81
2022/03/24 07:07:20;;;;;;;8.90;7.10;;;;;;;20.45;29.54;102243.78;5035048;28;20053;-81
2022/03/24 07:09:48;;;;;;;8.15;6.60;;;;;;;20.46;29.67;102245.53;5053406;28;20062;-81
2022/03/24 07:12:22;;;;;;;7.75;6.65;;;;;;;20.47;29.57;102252.63;5052724;28;20075;-81
2022/03/24 07:14:49;;;;;;;6.95;6.25;;;;;;;20.46;29.41;102246.38;5053063;28;20060;-81
2022/03/24 07:17:19;;;;;;;7.38;6.07;;;;;;;20.46;29.51;102246.38;5052806;28;20391;-81
2022/03/24 07:19:47;;;;;;;10.02;6.95;;;;;;;20.47;29.44;102241.84;5052822;28;20045;-81
2022/03/24 07:22:15;;;;;;;8.13;7.15;;;;;;;20.46;29.49;102246.38;5053397;28;20052;-81
2022/03/24 07:24:42;;;;;;;8.27;6.95;;;;;;;20.46;29.60;102243.69;5052808;28;20049;-80
2022/03/24 07:27:11;;;;;;;7.85;6.78;;;;;;;20.47;29.54;102250.78;5052199;28;20106;-81
2022/03/24 07:29:38;;;;;;;7.60;6.80;;;;;;;20.47;29.53;102253.47;5035767;28;20041;-82
2022/03/24 07:32:08;;;;;;;8.00;6.97;;;;;;;20.48;29.78;102248.94;5051212;28;20067;-81
2022/03/24 07:34:36;;;;;;;7.35;6.65;;;;;;;20.48;29.52;102243.56;5052235;28;20048;-82
2022/03/24 07:37:04;;;;;;;6.95;6.22;;;;;;;20.48;29.67;102249.84;5034858;28;20049;-83
2022/03/24 07:39:32;;;;;;;6.93;6.10;;;;;;;20.48;29.74;102244.47;5052626;28;20041;-83
2022/03/24 07:41:59;;;;;;;7.55;6.40;;;;;;;20.49;29.73;102251.56;5052615;28;20048;-82
2022/03/24 07:44:27;;;;;;;8.70;6.22;;;;;;;20.51;29.94;102251.47;5052714;28;20052;-81
2022/03/24 07:46:54;;;;;;;6.97;6.28;;;;;;;20.51;30.10;102254.16;5052126;28;20041;-83
2022/03/24 07:49:21;;;;;;;7.72;6.03;;;;;;;20.51;30.16;102256.00;5052157;28;20045;-81
2022/03/24 07:51:49;;;;;;;8.05;6.80;;;;;;;20.52;30.36;102258.56;5034359;28;20045;-80
2022/03/24 07:54:16;;;;;;;8.38;5.85;;;;;;;20.53;30.59;102262.97;5034218;28;20044;-79
2022/03/24 07:56:44;;;;;;;9.27;6.38;;;;;;;20.57;30.36;102263.63;5051784;28;20049;-80
2022/03/24 07:59:11;;;;;;;6.35;5.70;;;;;;;20.58;30.18;102262.66;5051835;28;20056;-78
2022/03/24 08:01:38;;;;;;;8.43;6.78;;;;;;;20.57;29.63;102264.50;5042793;28;20053;-81
2022/03/24 08:04:06;;;;;;;10.10;7.10;;;;;;;20.59;30.02;102257.19;5031339;28;20053;-77
2022/03/24 08:06:39;;;;;;;7.75;6.82;;;;;;;20.61;30.24;102257.06;5031453;28;20045;-78
2022/03/24 08:09:06;;;;;;;9.25;6.47;;;;;;;20.64;31.00;102256.88;5015167;28;20373;-79
2022/03/24 08:11:33;;;;;;;8.38;6.53;;;;;;;20.66;30.84;102255.81;5031816;28;20052;-78
2022/03/24 08:14:01;;;;;;;10.43;6.82;;;;;;;20.68;31.03;102261.06;5030976;28;20049;-79
2022/03/24 08:16:28;;;;;;;8.05;6.00;;;;;;;20.71;31.84;102256.34;5032093;28;20064;-86
2022/03/24 08:18:56;;;;;;;8.75;6.03;;;;;;;20.74;31.56;102257.94;5031875;28;20052;-81
2022/03/24 08:21:23;;;;;;;8.85;5.95;;;;;;;20.76;31.13;102260.53;5032041;28;20053;-83
2022/03/24 08:23:51;;;;;;;10.88;7.10;;;;;;;20.74;29.82;102258.81;5034756;28;20052;-84
2022/03/24 08:26:18;;;;;;;10.43;7.90;;;;;;;20.74;29.97;102256.13;5032352;28;20045;-87
2022/03/24 08:28:55;;;;;;;8.23;5.60;;;;;;;20.77;30.53;102262.25;5013768;28;20511;-83
2022/03/24 08:31:24;;;;;;;8.90;6.13;;;;;;;20.76;30.52;102261.41;5033929;28;20045;-85
2022/03/24 08:33:51;;;;;;;9.18;6.45;;;;;;;20.77;31.03;102259.56;5014024;28;20420;-86
2022/03/24 08:36:19;;;;;;;9.70;6.13;;;;;;;20.78;31.49;102266.66;5033566;28;20384;-89
2022/03/24 08:38:46;;;;;;;9.73;5.80;;;;;;;20.80;31.64;102270.13;5033433;28;20060;-90
2022/03/24 08:41:13;;;;;;;8.05;6.55;;;;;;;20.81;30.65;102264.63;5016678;28;20049;-89
2022/03/24 08:43:41;;;;;;;11.10;6.38;;;;;;;20.81;31.03;102263.75;5039519;28;20369;-83
2022/03/24 08:46:09;;;;;;;9.65;6.25;;;;;;;20.82;31.00;102268.16;5034666;28;20046;-82
2022/03/24 08:48:37;;;;;;;7.18;6.13;;;;;;;20.81;30.41;102263.75;5033926;28;20060;-84
2022/03/24 08:51:06;;;;;;;7.07;5.75;;;;;;;20.82;30.33;102268.16;5017211;28;20415;-84
2022/03/24 08:53:33;;;;;;;10.70;6.75;;;;;;;20.81;30.51;102267.31;5000507;28;20058;-86
2022/03/24 08:56:01;;;;;;;12.23;8.40;;;;;;;20.82;28.77;102269.03;5034768;28;20041;-91
2022/03/24 08:58:28;;;;;;;9.32;7.20;;;;;;;20.82;29.14;102265.47;5033689;28;20052;-87
2022/03/24 09:00:56;;;;;;;9.05;6.68;;;;;;;20.81;29.91;102266.44;5034785;28;20064;-90
2022/03/24 09:03:23;;;;;;;8.00;5.88;;;;;;;20.83;30.20;102267.22;5036121;28;20046;-85
2022/03/24 09:05:51;;;;;;;7.78;6.55;;;;;;;20.84;30.21;102266.25;5034585;28;20065;-83
2022/03/24 09:08:18;;;;;;;8.35;5.68;;;;;;;20.85;30.51;102267.97;5034869;28;20080;-87
2022/03/24 09:10:50;;;;;;;7.13;6.43;;;;;;;20.85;30.12;102274.22;5035074;28;20049;-89
2022/03/24 09:13:17;;;;;;;7.38;5.63;;;;;;;20.86;29.95;102267.84;5035628;28;20042;-90
2022/03/24 09:15:45;;;;;;;8.55;6.25;;;;;;;20.85;29.69;102276.03;5016558;28;20497;-82
2022/03/24 09:18:13;;;;;;;10.57;6.30;;;;;;;20.86;29.81;102269.69;5034085;28;20049;-84
2022/03/24 09:20:42;;;;;;;7.55;6.05;;;;;;;20.86;29.69;102264.28;5018128;28;20061;-90
2022/03/24 09:23:10;;;;;;;8.38;6.47;;;;;;;20.87;29.79;102268.72;5034876;28;20078;-83
2022/03/24 09:25:38;;;;;;;7.15;6.40;;;;;;;20.87;30.17;102263.34;5034653;28;20041;-83
2022/03/24 09:28:06;;;;;;;8.13;6.50;;;;;;;20.88;30.13;102267.75;5034838;28;20478;-86
2022/03/24 09:30:34;;;;;;;9.32;6.60;;;;;;;20.90;30.09;102268.50;5017431;28;20053;-89
2022/03/24 09:33:02;;;;;;;7.80;5.75;;;;;;;20.89;30.13;102270.34;5034550;28;20476;-84
2022/03/24 09:35:30;;;;;;;6.25;5.65;;;;;;;20.89;29.86;102264.09;5033855;28;20045;-82
2022/03/24 09:37:57;;;;;;;9.18;6.50;;;;;;;20.89;30.01;102261.41;5034347;28;20037;-81
2022/03/24 09:40:25;;;;;;;8.85;6.68;;;;;;;20.89;30.08;102259.56;5034978;28;20050;-88
2022/03/24 09:42:52;;;;;;;6.53;5.80;;;;;;;20.91;29.83;102256.78;5035447;28;20060;-85
2022/03/24 09:45:20;;;;;;;6.70;5.97;;;;;;;20.92;29.73;102261.19;5034343;28;20374;-86
2022/03/24 09:47:48;;;;;;;7.07;5.97;;;;;;;20.91;29.63;102251.41;5034371;28;20042;-87
2022/03/24 09:50:17;;;;;;;8.90;6.68;;;;;;;20.92;29.86;102259.34;5017580;28;20053;-89
2022/03/24 09:52:45;;;;;;;8.45;6.53;;;;;;;20.92;29.74;102250.41;5031896;28;20046;-80
2022/03/24 09:55:17;;;;;;;8.75;6.57;;;;;;;20.93;29.58;102262.91;5033431;28;20053;-79
2022/03/24 09:57:47;;;;;;;7.95;5.75;;;;;;;20.93;29.64;102254.84;5035645;28;20037;-80
2022/03/24 10:00:36;;;;;;;8.38;6.03;;;;;;;20.93;29.92;102258.38;5034127;28;20050;-81
2022/03/24 10:03:12;;;;;;;9.63;6.28;;;;;;;20.95;29.94;102250.22;5017046;28;20053;-80
2022/03/24 10:06:07;;;;;;;7.88;6.35;;;;;;;20.94;29.84;102240.38;5034915;28;20045;-82
2022/03/24 10:08:36;;;;;;;7.25;6.10;;;;;;;20.94;29.70;102238.59;5017231;28;20050;-81
2022/03/24 10:11:07;;;;;;;8.30;6.05;;;;;;;20.96;29.60;102238.47;5035442;28;20041;-85
2022/03/24 10:13:45;;;;;;;7.10;6.38;;;;;;;20.96;29.57;102227.69;5034052;28;20050;-82
2022/03/24 10:16:33;;;;;;;6.68;5.97;;;;;;;20.96;29.73;102233.09;5015547;28;20060;-80
2022/03/24 10:19:05;;;;;;;8.40;6.20;;;;;;;20.97;29.74;102226.72;5032358;28;20057;-86
2022/03/24 10:21:34;;;;;;;7.18;5.47;;;;;;;20.98;29.63;102225.75;5014087;28;20065;-81
2022/03/24 10:24:14;;;;;;;8.88;6.53;;;;;;;20.98;29.62;102225.75;5032173;28;20041;-83
2022/03/24 10:26:44;;;;;;;7.20;6.50;;;;;;;20.98;29.52;102214.97;5033891;28;20063;-82
2022/03/24 10:29:23;;;;;;;7.13;5.97;;;;;;;20.98;29.38;102215.88;5033861;28;20046;-81
2022/03/24 10:31:52;;;;;;;7.13;5.90;;;;;;;20.99;29.44;102214.88;5032916;28;20501;-81
2022/03/24 10:34:37;;;;;;;7.13;5.50;;;;;;;21.00;29.52;102218.44;5033698;28;20054;-85
2022/03/24 10:37:12;;;;;;;7.47;6.65;;;;;;;20.99;29.42;102217.56;5032003;28;20037;-82
2022/03/24 10:39:56;;;;;;;6.93;6.18;;;;;;;21.01;29.43;102216.59;5016155;28;20060;-80
2022/03/24 10:42:27;;;;;;;6.10;5.43;;;;;;;20.99;29.49;102212.19;5034359;28;20060;-90
2022/03/24 10:45:18;;;;;;;6.47;5.80;;;;;;;21.01;29.25;102203.13;5016049;28;20064;-79
2022/03/24 10:47:45;;;;;;;8.43;6.05;;;;;;;21.00;29.17;102202.28;5016789;28;20424;-82
2022/03/24 10:50:45;;;;;;;8.23;6.82;;;;;;;21.01;29.15;102203.13;5031529;28;20503;-83
2022/03/24 10:53:15;;;;;;;7.00;6.13;;;;;;;21.01;29.12;102195.91;5033074;28;20388;-85
2022/03/24 10:55:55;;;;;;;7.35;6.65;;;;;;;21.01;28.98;102190.53;5033654;28;20049;-81
2022/03/24 10:58:36;;;;;;;9.95;6.68;;;;;;;21.03;29.46;102185.91;5016649;28;20048;-88
2022/03/24 11:01:06;;;;;;;6.60;5.93;;;;;;;21.02;29.28;102176.09;5033488;28;20057;-86
2022/03/24 11:03:34;;;;;;;7.85;6.65;;;;;;;21.04;29.33;102181.38;5033375;28;20053;-81
2022/03/24 11:06:22;;;;;;;7.22;6.20;;;;;;;21.03;29.04;102175.16;5014724;28;20050;-85
2022/03/24 11:08:55;;;;;;;7.18;6.20;;;;;;;21.04;28.96;102173.31;5032971;28;20045;-86
2022/03/24 11:11:23;;;;;;;7.88;6.43;;;;;;;21.04;28.94;102171.47;5033043;28;20057;-84
2022/03/24 11:13:56;;;;;;;6.88;6.03;;;;;;;21.05;29.21;102166.94;5032458;28;20049;-86
2022/03/24 11:16:26;;;;;;;7.70;6.18;;;;;;;21.05;29.19;102175.03;5032226;28;20485;-82
2022/03/24 11:18:56;;;;;;;8.27;6.38;;;;;;;21.05;28.86;102173.19;5032469;28;20042;-83
2022/03/24 11:21:33;;;;;;;8.13;6.78;;;;;;;21.06;28.97;102163.28;5033332;28;20054;-84
2022/03/24 11:24:01;;;;;;;8.48;6.90;;;;;;;21.05;28.83;102162.41;5031934;28;20480;-88
2022/03/24 11:26:29;;;;;;;6.88;5.70;;;;;;;21.05;28.89;102158.88;5032788;28;20045;-89
2022/03/24 11:28:58;;;;;;;12.55;7.30;;;;;;;21.06;28.91;102149.81;5033009;28;20539;-87
2022/03/24 11:31:31;;;;;;;7.47;6.15;;;;;;;21.06;29.71;102145.28;5033122;28;20420;-79
2022/03/24 11:34:01;;;;;;;8.20;5.78;;;;;;;21.08;29.55;102140.66;5033830;28;20049;-86